Time;durP1;ratioP1;P1;durP2;ratioP2;P2;SDS_P1;SDS_P2;PMS_P1;PMS_P2;Temp;Humidity;BMP_temperature;BMP_pressure;BME280_temperature;BME280_humidity;BME280_pressure;Samples;Min_cycle;Max_cycle;Signal;HPM_P1;HPM_P2
2023/12/15 00:01:43;;;;;;;5.97;2.22;;;9.10;73.10;;;;;;2235613;55;22816;-68
2023/12/15 00:04:10;;;;;;;4.22;2.10;;;9.10;73.10;;;;;;2482310;54;21025;-68
2023/12/15 00:06:36;;;;;;;4.15;2.22;;;9.10;73.20;;;;;;2235233;55;20975;-68
2023/12/15 00:09:03;;;;;;;9.23;2.62;;;9.10;73.20;;;;;;2468327;55;21982;-68
2023/12/15 00:11:29;;;;;;;5.28;2.30;;;9.10;73.30;;;;;;2487598;54;21517;-68
2023/12/15 00:13:55;;;;;;;5.10;2.70;;;9.10;73.40;;;;;;2274523;56;20998;-67
2023/12/15 00:16:22;;;;;;;5.00;2.60;;;9.10;73.40;;;;;;2276314;56;20968;-68
2023/12/15 00:18:49;;;;;;;4.40;2.70;;;9.10;73.30;;;;;;2276743;56;21248;-68
2023/12/15 00:21:15;;;;;;;4.45;2.50;;;9.10;73.40;;;;;;2273646;55;21074;-68
2023/12/15 00:23:42;;;;;;;4.95;2.42;;;9.10;73.40;;;;;;2513230;54;21417;-68
2023/12/15 00:26:08;;;;;;;8.82;2.67;;;9.10;73.40;;;;;;2279991;55;21124;-68
2023/12/15 00:28:35;;;;;;;6.03;2.80;;;9.10;73.40;;;;;;2276888;55;21534;-67
2023/12/15 00:31:01;;;;;;;5.03;2.67;;;9.20;73.50;;;;;;2280723;56;20964;-67
2023/12/15 00:33:28;;;;;;;4.57;2.30;;;9.20;73.50;;;;;;2514833;54;21364;-68
2023/12/15 00:35:54;;;;;;;4.05;2.10;;;9.20;73.50;;;;;;2280713;56;20960;-67
2023/12/15 00:38:21;;;;;;;3.70;1.90;;;9.20;73.40;;;;;;2466757;55;21031;-68
2023/12/15 00:40:47;;;;;;;3.95;2.00;;;9.20;73.30;;;;;;2236525;55;21163;-68
2023/12/15 00:43:14;;;;;;;3.90;1.90;;;9.10;73.20;;;;;;2242998;56;21789;-67
2023/12/15 00:45:42;;;;;;;3.40;1.90;;;9.20;73.20;;;;;;2469895;55;20983;-68
2023/12/15 00:48:11;;;;;;;4.70;2.20;;;9.20;73.30;;;;;;2237385;56;21358;-67
2023/12/15 00:50:38;;;;;;;5.03;2.78;;;9.10;73.10;;;;;;2230693;56;20995;-67
2023/12/15 00:53:04;;;;;;;3.92;2.10;;;9.10;73.10;;;;;;2228642;56;21698;-67
2023/12/15 00:55:31;;;;;;;5.15;2.58;;;9.20;73.40;;;;;;2236812;56;21492;-68
2023/12/15 00:57:57;;;;;;;7.45;3.95;;;9.20;73.40;;;;;;2224173;55;21039;-67
2023/12/15 01:00:24;;;;;;;6.82;3.40;;;9.20;73.40;;;;;;2220991;56;20945;-68
2023/12/15 01:02:50;;;;;;;5.53;2.85;;;9.00;73.30;;;;;;2228051;56;21035;-67
2023/12/15 01:05:16;;;;;;;4.85;2.67;;;9.20;73.50;;;;;;2508659;54;20960;-68
2023/12/15 01:07:44;;;;;;;5.50;2.72;;;9.20;73.40;;;;;;2268694;56;22888;-68
2023/12/15 01:10:11;;;;;;;4.07;2.00;;;9.20;73.40;;;;;;2271132;56;21171;-67
2023/12/15 01:12:39;;;;;;;4.00;2.20;;;9.20;73.40;;;;;;2269195;55;20962;-68
2023/12/15 01:15:06;;;;;;;5.18;2.75;;;9.20;73.40;;;;;;2506840;54;21012;-68
2023/12/15 01:17:32;;;;;;;5.93;2.05;;;9.20;73.40;;;;;;2514384;54;21795;-66
2023/12/15 01:19:58;;;;;;;4.53;2.15;;;9.20;73.30;;;;;;2280492;55;20928;-67
2023/12/15 01:22:25;;;;;;;5.18;2.55;;;9.20;73.20;;;;;;2281416;56;20964;-67
2023/12/15 01:24:51;;;;;;;4.03;2.12;;;9.20;73.20;;;;;;2519429;54;21027;-68
2023/12/15 01:27:19;;;;;;;4.55;2.30;;;9.20;73.20;;;;;;2281701;55;21054;-67
2023/12/15 01:29:45;;;;;;;4.25;2.22;;;9.10;73.10;;;;;;2283881;55;20971;-67
2023/12/15 01:32:12;;;;;;;5.50;2.85;;;9.10;73.10;;;;;;2284635;55;21372;-68
2023/12/15 01:34:39;;;;;;;3.70;2.15;;;9.10;73.00;;;;;;2249475;55;21045;-67
2023/12/15 01:37:05;;;;;;;4.20;2.33;;;9.10;73.10;;;;;;2275124;55;20935;-68
2023/12/15 01:39:32;;;;;;;3.97;2.00;;;9.10;73.10;;;;;;2502021;54;20954;-68
2023/12/15 01:41:58;;;;;;;5.53;2.67;;;9.10;73.10;;;;;;2276526;56;21111;-67
2023/12/15 01:44:25;;;;;;;4.53;2.22;;;9.20;73.20;;;;;;2281606;55;20908;-68
2023/12/15 01:46:51;;;;;;;3.75;1.92;;;9.10;73.10;;;;;;2275980;56;21358;-68
2023/12/15 01:49:19;;;;;;;4.07;2.33;;;9.10;73.10;;;;;;2517628;54;20955;-67
2023/12/15 01:51:45;;;;;;;4.20;2.30;;;9.10;73.10;;;;;;2278932;56;21011;-68
2023/12/15 01:54:11;;;;;;;4.22;1.98;;;9.00;73.00;;;;;;2272560;55;21102;-68
2023/12/15 01:56:38;;;;;;;4.72;2.35;;;9.00;73.00;;;;;;2503765;54;21321;-68
2023/12/15 01:59:05;;;;;;;6.05;2.70;;;9.00;73.10;;;;;;2497291;54;21031;-67
2023/12/15 02:01:31;;;;;;;5.85;2.22;;;9.00;73.10;;;;;;2487978;54;21001;-67
2023/12/15 02:03:57;;;;;;;6.05;3.05;;;9.00;73.10;;;;;;2494243;54;21070;-67
2023/12/15 02:06:24;;;;;;;6.95;2.67;;;9.00;73.10;;;;;;2275964;55;20967;-68
2023/12/15 02:08:51;;;;;;;4.60;2.55;;;9.00;73.10;;;;;;2498291;54;21013;-68
2023/12/15 02:11:20;;;;;;;5.03;2.30;;;9.00;73.20;;;;;;2273630;55;20998;-67
2023/12/15 02:13:47;;;;;;;4.95;2.75;;;9.00;73.10;;;;;;2280855;56;21224;-66
2023/12/15 02:16:13;;;;;;;4.85;2.50;;;9.00;73.20;;;;;;2263845;56;21019;-68
2023/12/15 02:18:39;;;;;;;4.12;2.15;;;9.00;73.20;;;;;;2240748;55;21071;-67
2023/12/15 02:21:06;;;;;;;4.47;2.30;;;9.00;73.20;;;;;;2443758;54;21085;-68
2023/12/15 02:23:32;;;;;;;4.93;2.42;;;9.00;73.20;;;;;;2434334;55;21795;-68
2023/12/15 02:25:59;;;;;;;4.65;2.42;;;9.00;73.20;;;;;;2514002;54;21047;-68
2023/12/15 02:28:25;;;;;;;4.03;2.12;;;9.00;73.30;;;;;;2281584;55;21039;-68
2023/12/15 02:30:51;;;;;;;5.65;2.47;;;9.00;73.30;;;;;;2283256;55;21032;-68
2023/12/15 02:33:18;;;;;;;4.28;2.30;;;9.00;73.40;;;;;;2285290;56;20951;-68
2023/12/15 02:35:47;;;;;;;4.30;2.33;;;9.00;73.40;;;;;;2283133;56;21035;-67
2023/12/15 02:38:18;;;;;;;7.07;3.47;;;9.00;73.50;;;;;;2245788;56;20940;-68
2023/12/15 02:40:44;;;;;;;6.47;3.45;;;9.00;73.50;;;;;;2444879;55;20979;-67
2023/12/15 02:43:13;;;;;;;8.52;3.25;;;9.00;73.50;;;;;;2269090;56;21012;-67
2023/12/15 02:45:41;;;;;;;5.85;2.90;;;9.00;73.50;;;;;;2266027;56;20956;-67
2023/12/15 02:48:07;;;;;;;5.82;2.80;;;9.00;73.60;;;;;;2497451;55;21475;-68
2023/12/15 02:50:34;;;;;;;5.55;2.80;;;9.00;73.50;;;;;;2499629;54;21524;-68
2023/12/15 02:53:00;;;;;;;4.68;2.42;;;9.00;73.60;;;;;;2263172;55;21526;-68
2023/12/15 02:55:27;;;;;;;4.80;2.55;;;9.00;73.60;;;;;;2466106;55;21466;-68
2023/12/15 02:57:53;;;;;;;6.18;2.80;;;9.00;73.60;;;;;;2264079;56;21642;-67
2023/12/15 03:00:19;;;;;;;6.03;3.35;;;8.90;73.50;;;;;;2274664;56;21003;-67
2023/12/15 03:02:46;;;;;;;5.93;2.78;;;9.10;73.70;;;;;;2509486;55;20988;-67
2023/12/15 03:05:12;;;;;;;4.47;2.75;;;9.00;73.60;;;;;;2512790;55;20980;-67
2023/12/15 03:07:38;;;;;;;4.82;2.60;;;9.00;73.60;;;;;;2518245;54;21545;-67
2023/12/15 03:10:05;;;;;;;5.70;2.92;;;9.10;73.80;;;;;;2518620;55;21008;-68
2023/12/15 03:12:32;;;;;;;5.60;2.92;;;9.10;73.80;;;;;;2283424;55;21314;-66
2023/12/15 03:14:58;;;;;;;4.93;2.83;;;9.10;73.90;;;;;;2284232;55;20967;-67
2023/12/15 03:17:30;;;;;;;6.82;3.05;;;9.10;73.80;;;;;;2518683;55;21004;-67
2023/12/15 03:19:56;;;;;;;5.80;2.92;;;9.10;73.90;;;;;;2275891;56;21027;-67
2023/12/15 03:22:23;;;;;;;5.18;3.03;;;9.10;73.90;;;;;;2282345;55;20939;-68
2023/12/15 03:24:50;;;;;;;4.70;2.60;;;9.20;74.00;;;;;;2518599;54;21000;-67
2023/12/15 03:27:16;;;;;;;6.65;3.40;;;9.20;74.00;;;;;;2518622;55;20960;-68
2023/12/15 03:29:43;;;;;;;6.40;3.30;;;9.20;74.00;;;;;;2250902;56;20989;-67
2023/12/15 03:32:11;;;;;;;6.97;3.05;;;9.20;74.10;;;;;;2518438;55;21068;-68
2023/12/15 03:34:37;;;;;;;5.47;2.90;;;9.20;74.10;;;;;;2284614;56;21286;-68
2023/12/15 03:37:04;;;;;;;4.37;2.30;;;9.20;74.10;;;;;;2284828;55;20960;-68
2023/12/15 03:39:38;;;;;;;4.72;2.40;;;9.20;74.10;;;;;;2284280;55;21295;-67
2023/12/15 03:42:06;;;;;;;6.50;3.08;;;9.20;74.00;;;;;;2267095;55;20973;-69
2023/12/15 03:44:33;;;;;;;5.45;2.67;;;9.10;73.90;;;;;;2270849;56;21023;-67
2023/12/15 03:46:59;;;;;;;4.75;2.67;;;9.30;74.10;;;;;;2284898;56;20980;-67
2023/12/15 03:49:26;;;;;;;5.15;2.67;;;9.30;74.10;;;;;;2284236;56;20976;-67
2023/12/15 03:51:53;;;;;;;5.15;2.87;;;9.30;74.10;;;;;;2518221;55;21414;-67
2023/12/15 03:54:19;;;;;;;5.00;2.67;;;9.30;74.10;;;;;;2277045;55;21253;-69
2023/12/15 03:56:46;;;;;;;5.62;2.45;;;9.30;74.20;;;;;;2264110;56;20962;-68
2023/12/15 03:59:12;;;;;;;5.32;3.03;;;9.30;74.20;;;;;;2257516;56;21022;-68
2023/12/15 04:01:39;;;;;;;7.22;3.10;;;9.40;74.20;;;;;;2256764;55;21392;-68
2023/12/15 04:04:05;;;;;;;5.65;2.95;;;9.40;74.20;;;;;;2259363;55;20978;-68
2023/12/15 04:06:33;;;;;;;5.43;2.80;;;9.40;74.20;;;;;;2260377;56;20974;-67
2023/12/15 04:09:00;;;;;;;4.57;2.65;;;9.40;74.20;;;;;;2258785;56;21671;-68
2023/12/15 04:11:30;;;;;;;4.70;2.70;;;9.40;74.20;;;;;;2487482;55;20973;-67
2023/12/15 04:13:56;;;;;;;4.65;2.58;;;9.40;74.10;;;;;;2472937;54;21066;-68
2023/12/15 04:16:22;;;;;;;4.87;2.92;;;9.40;74.00;;;;;;2240932;56;20962;-68
2023/12/15 04:18:49;;;;;;;5.97;3.25;;;9.40;74.00;;;;;;2260765;56;21034;-68
2023/12/15 04:21:15;;;;;;;4.75;2.62;;;9.50;74.00;;;;;;2472874;55;21019;-68
2023/12/15 04:23:42;;;;;;;5.68;2.55;;;9.40;73.90;;;;;;2250155;55;20961;-68
2023/12/15 04:26:08;;;;;;;5.10;3.12;;;9.40;73.90;;;;;;2485247;54;21611;-67
2023/12/15 04:28:35;;;;;;;6.12;3.05;;;9.40;73.80;;;;;;2252863;55;21529;-67
2023/12/15 04:31:03;;;;;;;5.45;3.17;;;9.40;73.80;;;;;;2252269;56;20970;-68
2023/12/15 04:33:29;;;;;;;4.93;2.83;;;9.50;73.90;;;;;;2454261;55;21480;-68
2023/12/15 04:35:55;;;;;;;5.10;2.78;;;9.50;73.90;;;;;;2442029;55;20954;-68
2023/12/15 04:38:22;;;;;;;5.78;2.83;;;9.40;73.80;;;;;;2242840;56;20941;-68
2023/12/15 04:40:49;;;;;;;5.57;2.95;;;9.40;73.70;;;;;;2472624;55;21476;-67
2023/12/15 04:43:16;;;;;;;6.03;3.47;;;9.50;73.80;;;;;;2508444;54;20944;-68
2023/12/15 04:45:42;;;;;;;4.85;3.28;;;9.40;73.70;;;;;;2474802;54;21040;-67
2023/12/15 04:48:09;;;;;;;5.82;3.67;;;9.40;73.70;;;;;;2459515;55;20974;-68
2023/12/15 04:50:35;;;;;;;6.30;3.10;;;9.40;73.70;;;;;;2265053;56;21093;-68
2023/12/15 04:53:04;;;;;;;5.25;2.92;;;9.40;73.70;;;;;;2260484;55;20938;-67
2023/12/15 04:55:32;;;;;;;5.72;3.08;;;9.40;73.70;;;;;;2265133;56;20971;-67
2023/12/15 04:58:00;;;;;;;6.82;3.20;;;9.40;73.60;;;;;;2229429;56;21394;-68
2023/12/15 05:00:26;;;;;;;6.47;3.45;;;9.40;73.70;;;;;;2261052;54;21016;-67
2023/12/15 05:02:58;;;;;;;5.20;3.15;;;9.40;73.70;;;;;;2476756;55;21103;-67
2023/12/15 05:05:24;;;;;;;5.18;3.10;;;9.40;73.70;;;;;;2240557;56;21065;-68
2023/12/15 05:07:50;;;;;;;5.57;2.97;;;9.40;73.70;;;;;;2224665;56;21063;-68
2023/12/15 05:10:17;;;;;;;5.35;2.67;;;9.40;73.80;;;;;;2425722;55;21502;-67
2023/12/15 05:12:43;;;;;;;5.18;3.10;;;9.40;73.80;;;;;;2449836;55;20994;-66
2023/12/15 05:15:10;;;;;;;5.82;3.10;;;9.40;73.80;;;;;;2240363;55;20943;-68
2023/12/15 05:17:37;;;;;;;5.75;3.45;;;9.40;73.80;;;;;;2232344;55;20939;-69
2023/12/15 05:20:05;;;;;;;5.60;3.10;;;9.40;73.80;;;;;;2276682;55;21820;-67
2023/12/15 05:22:35;;;;;;;5.05;2.90;;;9.40;73.80;;;;;;2477520;54;22035;-67
2023/12/15 05:25:01;;;;;;;5.60;2.87;;;9.40;73.80;;;;;;2244156;55;20972;-68
2023/12/15 05:27:37;;;;;;;6.37;3.20;;;9.50;74.00;;;;;;2208071;56;20961;-67
2023/12/15 05:30:07;;;;;;;5.32;3.05;;;9.50;73.90;;;;;;2179398;54;20955;-67
2023/12/15 05:32:38;;;;;;;4.90;2.92;;;9.50;73.90;;;;;;2205605;54;22727;-68
2023/12/15 05:35:08;;;;;;;5.32;2.80;;;9.50;73.90;;;;;;2185535;55;22307;-67
2023/12/15 05:37:37;;;;;;;4.65;2.35;;;9.50;73.90;;;;;;2173843;55;21808;-67
2023/12/15 05:40:13;;;;;;;6.35;2.75;;;9.50;73.80;;;;;;2349241;54;21041;-67
2023/12/15 05:42:52;;;;;;;6.32;2.80;;;9.50;73.70;;;;;;2345045;55;20997;-68
2023/12/15 05:45:41;;;;;;;5.05;2.78;;;9.50;73.40;;;;;;2304457;55;21897;-67
2023/12/15 05:48:15;;;;;;;5.70;3.05;;;9.50;73.30;;;;;;2113568;55;21501;-68
2023/12/15 05:51:12;;;;;;;6.22;2.65;;;9.60;73.60;;;;;;2141608;56;21018;-68
2023/12/15 05:54:14;;;;;;;5.30;2.62;;;9.60;73.50;;;;;;2359263;55;21894;-68
2023/12/15 05:56:43;;;;;;;5.28;2.95;;;9.50;73.30;;;;;;2181007;56;21337;-66
2023/12/15 05:59:11;;;;;;;6.18;3.37;;;9.60;73.50;;;;;;2417057;55;21894;-67
2023/12/15 06:01:39;;;;;;;5.53;3.00;;;9.50;73.50;;;;;;2189097;56;21680;-66
2023/12/15 06:04:12;;;;;;;4.93;2.80;;;9.60;73.60;;;;;;2195054;55;22626;-68
2023/12/15 06:06:42;;;;;;;5.35;2.97;;;9.60;73.60;;;;;;2221821;55;22099;-67
2023/12/15 06:09:11;;;;;;;4.97;2.22;;;9.50;73.40;;;;;;2207951;56;21216;-68
2023/12/15 06:11:41;;;;;;;4.90;3.00;;;9.50;73.40;;;;;;2236668;56;21965;-67
2023/12/15 06:14:08;;;;;;;6.00;3.08;;;9.50;73.40;;;;;;2465858;54;20987;-68
2023/12/15 06:16:35;;;;;;;4.28;2.35;;;9.50;73.50;;;;;;2243801;56;21664;-67
2023/12/15 06:19:02;;;;;;;5.15;3.15;;;9.50;73.50;;;;;;2248448;55;21026;-68
2023/12/15 06:21:29;;;;;;;5.18;2.72;;;9.50;73.50;;;;;;2251890;56;21493;-68
2023/12/15 06:23:55;;;;;;;6.45;3.30;;;9.50;73.40;;;;;;2441652;55;20934;-68
2023/12/15 06:26:23;;;;;;;5.68;3.42;;;9.50;73.40;;;;;;2253975;56;21548;-68
2023/12/15 06:28:54;;;;;;;6.20;3.42;;;9.50;73.50;;;;;;2235357;56;21613;-67
2023/12/15 06:31:20;;;;;;;6.65;3.85;;;9.40;73.40;;;;;;2240509;55;20966;-68
2023/12/15 06:33:52;;;;;;;6.12;3.58;;;9.50;73.60;;;;;;2442611;55;20978;-67
2023/12/15 06:36:20;;;;;;;7.18;4.22;;;9.50;73.60;;;;;;2234295;56;20970;-69
2023/12/15 06:38:48;;;;;;;7.78;4.35;;;9.50;73.70;;;;;;2242173;56;21214;-69
2023/12/15 06:41:15;;;;;;;6.55;3.55;;;9.40;73.60;;;;;;2462511;55;21404;-66
2023/12/15 06:43:42;;;;;;;7.53;3.85;;;9.50;73.80;;;;;;2243418;56;21633;-67
2023/12/15 06:46:08;;;;;;;5.97;3.55;;;9.50;73.80;;;;;;2266166;55;22211;-67
2023/12/15 06:48:36;;;;;;;5.68;3.37;;;9.50;73.90;;;;;;2239997;56;21036;-68
2023/12/15 06:51:05;;;;;;;7.47;4.12;;;9.50;73.80;;;;;;2235535;55;21424;-68
2023/12/15 06:53:31;;;;;;;7.18;3.83;;;9.50;73.90;;;;;;2242404;55;21553;-67
2023/12/15 06:55:59;;;;;;;6.05;3.50;;;9.50;74.00;;;;;;2465984;55;21022;-67
2023/12/15 06:58:29;;;;;;;7.32;4.05;;;9.50;73.80;;;;;;2244746;55;21097;-69
2023/12/15 07:00:56;;;;;;;6.75;3.87;;;9.50;73.90;;;;;;2473489;55;20951;-67
2023/12/15 07:03:24;;;;;;;6.07;3.40;;;9.50;73.90;;;;;;2247850;55;21027;-68
2023/12/15 07:05:51;;;;;;;5.62;3.40;;;9.50;74.00;;;;;;2245183;55;21412;-68
2023/12/15 07:08:21;;;;;;;5.70;3.47;;;9.50;74.00;;;;;;2453237;54;21350;-66
2023/12/15 07:10:48;;;;;;;7.53;3.85;;;9.50;74.00;;;;;;2212530;56;22200;-67
2023/12/15 07:13:15;;;;;;;11.70;6.35;;;9.50;74.00;;;;;;2482297;54;21042;-67
2023/12/15 07:15:44;;;;;;;9.98;4.93;;;9.50;74.00;;;;;;2267567;56;21546;-68
2023/12/15 07:18:11;;;;;;;7.47;4.15;;;9.50;73.90;;;;;;2264634;56;21290;-67
2023/12/15 07:20:39;;;;;;;6.62;3.80;;;9.60;74.00;;;;;;2260448;56;20937;-67
2023/12/15 07:23:10;;;;;;;6.05;3.42;;;9.50;73.90;;;;;;2266812;56;21293;-67
2023/12/15 07:25:38;;;;;;;6.35;3.42;;;9.60;74.00;;;;;;2449697;54;22116;-67
2023/12/15 07:28:05;;;;;;;5.85;3.58;;;9.60;74.00;;;;;;2492682;54;21057;-67
2023/12/15 07:30:31;;;;;;;5.03;3.03;;;9.60;74.10;;;;;;2469716;54;21528;-67
2023/12/15 07:33:02;;;;;;;6.30;3.37;;;9.60;74.80;;;;;;2471227;54;20937;-67
2023/12/15 07:35:29;;;;;;;5.93;3.22;;;9.60;74.00;;;;;;2490184;54;22039;-68
2023/12/15 07:38:00;;;;;;;5.40;3.40;;;9.60;74.00;;;;;;2256223;56;21419;-67
2023/12/15 07:40:28;;;;;;;5.78;3.55;;;9.60;74.00;;;;;;2493249;54;20981;-68
2023/12/15 07:42:58;;;;;;;6.15;3.62;;;9.60;74.00;;;;;;2249023;55;21068;-68
2023/12/15 07:45:29;;;;;;;5.75;3.28;;;9.70;74.10;;;;;;2462055;54;21755;-67
2023/12/15 07:47:59;;;;;;;5.97;3.75;;;9.60;74.00;;;;;;2252033;56;21012;-68
2023/12/15 07:50:26;;;;;;;5.20;3.53;;;9.60;74.00;;;;;;2231859;56;20956;-68
2023/12/15 07:52:57;;;;;;;5.40;3.50;;;9.70;74.20;;;;;;2248333;55;21531;-67
2023/12/15 07:55:24;;;;;;;6.07;3.58;;;9.60;74.00;;;;;;2244846;56;21683;-68
2023/12/15 07:57:50;;;;;;;5.87;3.78;;;9.70;74.20;;;;;;2480259;54;21442;-68
2023/12/15 08:00:17;;;;;;;8.25;5.20;;;9.70;74.20;;;;;;2247190;56;21503;-67
2023/12/15 08:02:44;;;;;;;9.38;5.60;;;9.60;74.10;;;;;;2235882;56;21030;-68
2023/12/15 08:05:11;;;;;;;8.63;5.72;;;9.70;74.20;;;;;;2222875;56;20947;-68
2023/12/15 08:07:38;;;;;;;6.95;4.43;;;9.70;74.20;;;;;;2473520;54;21593;-67
2023/12/15 08:10:06;;;;;;;6.90;4.28;;;9.70;74.20;;;;;;2492719;54;20934;-68
2023/12/15 08:12:32;;;;;;;6.35;4.22;;;9.70;74.20;;;;;;2255590;56;20953;-68
2023/12/15 08:14:59;;;;;;;7.87;4.82;;;9.70;74.30;;;;;;2245298;56;22021;-67
2023/12/15 08:17:27;;;;;;;6.10;3.70;;;9.80;74.40;;;;;;2236187;56;20914;-68
2023/12/15 08:19:57;;;;;;;7.50;4.15;;;9.80;74.20;;;;;;2235756;56;20997;-68
2023/12/15 08:22:25;;;;;;;5.93;3.70;;;9.80;74.20;;;;;;2236645;56;21036;-67
2023/12/15 08:24:52;;;;;;;6.03;3.85;;;9.80;74.20;;;;;;2471426;54;21420;-68
2023/12/15 08:27:21;;;;;;;5.40;3.10;;;9.80;74.20;;;;;;2246393;56;21747;-67
2023/12/15 08:29:48;;;;;;;4.95;2.97;;;9.80;74.20;;;;;;2234244;56;20913;-68
2023/12/15 08:32:17;;;;;;;6.45;3.42;;;9.80;74.20;;;;;;2460868;54;20933;-69
2023/12/15 08:34:47;;;;;;;5.50;3.42;;;9.90;74.30;;;;;;2454555;54;21822;-69
2023/12/15 08:37:13;;;;;;;5.87;3.33;;;9.90;74.30;;;;;;2450244;54;20925;-68
2023/12/15 08:39:40;;;;;;;6.75;3.70;;;9.90;74.30;;;;;;2467441;54;20898;-67
2023/12/15 08:42:06;;;;;;;7.45;4.68;;;9.90;74.30;;;;;;2470273;54;20989;-68
2023/12/15 08:44:34;;;;;;;7.35;3.75;;;9.90;74.30;;;;;;2488742;54;21534;-68
2023/12/15 08:47:01;;;;;;;7.12;3.47;;;9.90;74.30;;;;;;2489232;54;21471;-69
2023/12/15 08:49:28;;;;;;;7.10;3.78;;;9.90;74.30;;;;;;2228406;56;21918;-67
2023/12/15 08:51:55;;;;;;;6.53;4.22;;;9.90;74.30;;;;;;2476153;54;21025;-68
2023/12/15 08:54:25;;;;;;;6.57;3.95;;;10.00;73.30;;;;;;2266060;56;21238;-67
2023/12/15 08:56:54;;;;;;;8.20;4.55;;;10.00;73.40;;;;;;2506226;54;20930;-69
2023/12/15 08:59:24;;;;;;;9.02;4.18;;;10.00;73.30;;;;;;2272257;56;21049;-68
2023/12/15 09:01:50;;;;;;;7.95;4.03;;;10.00;73.90;;;;;;2510493;54;20942;-68
2023/12/15 09:04:17;;;;;;;7.15;3.37;;;10.00;73.20;;;;;;2511088;54;20929;-68
2023/12/15 09:06:43;;;;;;;5.55;3.33;;;10.10;73.30;;;;;;2278914;56;20929;-68
2023/12/15 09:09:10;;;;;;;4.72;2.97;;;10.10;73.20;;;;;;2277531;56;20894;-68
2023/12/15 09:11:37;;;;;;;4.80;2.92;;;10.10;73.10;;;;;;2278483;55;20909;-67
2023/12/15 09:14:03;;;;;;;5.78;3.03;;;10.10;73.00;;;;;;2281207;55;21417;-68
2023/12/15 09:16:30;;;;;;;4.97;2.95;;;10.10;73.00;;;;;;2281255;56;20906;-68
2023/12/15 09:18:56;;;;;;;6.07;3.65;;;10.00;72.90;;;;;;2285588;56;20954;-68
2023/12/15 09:21:23;;;;;;;5.00;3.28;;;10.10;73.00;;;;;;2517202;54;20965;-69
2023/12/15 09:23:56;;;;;;;7.10;3.40;;;10.20;73.10;;;;;;2286975;56;21230;-68
2023/12/15 09:26:23;;;;;;;7.70;3.33;;;10.10;73.00;;;;;;2287586;56;21384;-67
2023/12/15 09:28:53;;;;;;;6.85;3.67;;;10.10;73.10;;;;;;2288198;56;20944;-68
2023/12/15 09:31:19;;;;;;;7.72;4.28;;;10.10;73.10;;;;;;2523771;54;20914;-68
2023/12/15 09:33:45;;;;;;;9.45;4.53;;;10.10;73.20;;;;;;2289900;56;20957;-68
2023/12/15 09:36:12;;;;;;;9.43;4.87;;;10.20;73.40;;;;;;2514848;54;20963;-68
2023/12/15 09:38:38;;;;;;;10.82;5.53;;;10.10;73.40;;;;;;2492718;54;20917;-68
2023/12/15 09:41:05;;;;;;;12.15;5.68;;;10.20;73.60;;;;;;2290553;56;21005;-68
2023/12/15 09:43:33;;;;;;;9.77;4.75;;;10.20;73.70;;;;;;2288959;56;20953;-68
2023/12/15 09:45:59;;;;;;;8.00;4.60;;;10.20;73.80;;;;;;2290603;56;20998;-68
2023/12/15 09:48:27;;;;;;;9.85;4.95;;;10.20;73.80;;;;;;2289561;56;20922;-68
2023/12/15 09:50:56;;;;;;;7.70;4.10;;;10.30;74.00;;;;;;2290565;56;20913;-68
2023/12/15 09:53:22;;;;;;;8.15;4.35;;;10.30;74.00;;;;;;2290002;56;21673;-67
2023/12/15 09:55:50;;;;;;;6.60;3.85;;;10.30;74.10;;;;;;2270184;56;20943;-69
2023/12/15 09:58:17;;;;;;;8.13;3.75;;;10.30;74.10;;;;;;2283366;56;20918;-67
2023/12/15 10:00:43;;;;;;;5.97;3.10;;;10.40;74.20;;;;;;2524954;54;20958;-67
2023/12/15 10:03:14;;;;;;;6.05;2.58;;;10.50;74.40;;;;;;2525375;54;21293;-68
2023/12/15 10:05:41;;;;;;;4.93;2.83;;;10.40;74.30;;;;;;2289997;56;20949;-68
2023/12/15 10:08:07;;;;;;;4.95;2.87;;;10.50;74.40;;;;;;2289630;56;20936;-68
2023/12/15 10:10:34;;;;;;;6.90;3.50;;;10.50;74.40;;;;;;2524226;54;21040;-68
2023/12/15 10:13:02;;;;;;;6.10;3.05;;;10.60;74.40;;;;;;2525533;54;20942;-68
2023/12/15 10:15:28;;;;;;;6.03;3.47;;;10.60;74.50;;;;;;2289679;56;20910;-69
2023/12/15 10:17:55;;;;;;;6.93;3.10;;;10.60;74.60;;;;;;2525034;54;21374;-68
2023/12/15 10:20:21;;;;;;;6.00;3.15;;;10.70;74.80;;;;;;2524818;54;20994;-67
2023/12/15 10:22:48;;;;;;;5.80;3.30;;;10.70;74.90;;;;;;2524957;54;21375;-69
2023/12/15 10:25:33;;;;;;;6.47;3.00;;;10.80;75.10;;;;;;2290336;56;20968;-67
2023/12/15 10:28:00;;;;;;;5.32;2.87;;;10.90;74.80;;;;;;2524671;54;20961;-68
2023/12/15 10:30:29;;;;;;;4.18;2.47;;;11.00;75.20;;;;;;2289096;56;20962;-68
2023/12/15 10:32:57;;;;;;;5.35;2.85;;;11.00;75.10;;;;;;2289922;56;20930;-68
2023/12/15 10:35:23;;;;;;;4.20;2.60;;;11.00;75.00;;;;;;2289360;56;21383;-68
2023/12/15 10:37:50;;;;;;;3.60;2.37;;;11.00;75.00;;;;;;2290172;56;21013;-67
2023/12/15 10:40:16;;;;;;;5.37;2.53;;;11.10;75.00;;;;;;2285888;56;21008;-69
2023/12/15 10:42:42;;;;;;;5.90;2.60;;;11.10;74.80;;;;;;2255995;56;20959;-68
2023/12/15 10:45:10;;;;;;;4.55;2.37;;;11.20;74.80;;;;;;2512274;54;20958;-68
2023/12/15 10:47:37;;;;;;;3.72;2.10;;;11.20;74.90;;;;;;2523953;54;20957;-68
2023/12/15 10:50:07;;;;;;;4.50;2.37;;;11.30;75.00;;;;;;2289809;56;20957;-68
2023/12/15 10:52:35;;;;;;;4.82;2.60;;;11.30;75.20;;;;;;2524045;54;21371;-68
2023/12/15 10:55:04;;;;;;;4.85;2.67;;;11.40;75.30;;;;;;2289262;56;20925;-69
2023/12/15 10:57:31;;;;;;;3.60;2.20;;;11.40;75.30;;;;;;2289588;56;20973;-68
2023/12/15 10:59:57;;;;;;;3.78;2.17;;;11.50;75.30;;;;;;2290047;56;21442;-68
2023/12/15 11:02:28;;;;;;;3.78;2.00;;;11.50;75.20;;;;;;2289941;56;20917;-69
2023/12/15 11:05:00;;;;;;;4.70;2.45;;;11.60;75.30;;;;;;2289630;56;20953;-68
2023/12/15 11:07:27;;;;;;;3.22;1.85;;;11.70;75.10;;;;;;2290273;56;20961;-68
2023/12/15 11:09:54;;;;;;;4.32;2.00;;;11.70;75.10;;;;;;2259959;56;21921;-67
2023/12/15 11:13:39;;;;;;;4.93;2.33;;;11.70;75.00;;;;;;2524721;54;20934;-68
2023/12/15 11:16:06;;;;;;;3.60;1.90;;;11.80;74.00;;;;;;2288188;56;20962;-69
2023/12/15 11:18:34;;;;;;;3.92;2.20;;;11.80;75.00;;;;;;2521095;54;21747;-68
2023/12/15 11:21:01;;;;;;;3.30;1.73;;;11.90;75.10;;;;;;2261326;56;20934;-68
2023/12/15 11:23:30;;;;;;;4.57;2.25;;;11.90;75.10;;;;;;2525142;54;21337;-68
2023/12/15 11:25:59;;;;;;;3.60;1.95;;;12.00;75.20;;;;;;2525165;54;21759;-68
2023/12/15 11:28:27;;;;;;;4.55;2.25;;;12.00;75.00;;;;;;2289975;56;20977;-68
2023/12/15 11:30:53;;;;;;;5.53;2.37;;;12.10;75.00;;;;;;2289007;56;20938;-68
2023/12/15 11:36:52;;;;;;;5.03;2.05;;;11.90;74.40;;;;;;2525993;54;20914;-68
2023/12/15 11:39:19;;;;;;;4.07;1.90;;;12.20;73.50;;;;;;2525120;54;20905;-68
2023/12/15 11:41:47;;;;;;;4.78;2.20;;;12.20;74.60;;;;;;2290439;56;20913;-67
2023/12/15 11:44:15;;;;;;;6.37;2.22;;;12.20;74.50;;;;;;2290617;56;20913;-68
2023/12/15 11:46:41;;;;;;;4.43;1.95;;;12.30;74.30;;;;;;2290344;56;21030;-68
2023/12/15 11:49:08;;;;;;;5.00;2.12;;;12.30;74.40;;;;;;2290896;56;20941;-68
2023/12/15 11:51:35;;;;;;;4.90;1.85;;;12.30;74.20;;;;;;2525495;54;21364;-68
2023/12/15 11:54:04;;;;;;;5.72;1.92;;;12.30;74.10;;;;;;2525372;54;20961;-68
2023/12/15 11:56:32;;;;;;;5.57;2.03;;;12.30;74.10;;;;;;2290179;56;21301;-68
2023/12/15 11:59:02;;;;;;;4.55;2.12;;;12.20;73.90;;;;;;2290714;56;20909;-68
2023/12/15 12:01:35;;;;;;;3.83;1.70;;;12.30;73.70;;;;;;2291914;56;21458;-69
2023/12/15 12:04:02;;;;;;;5.00;2.10;;;12.40;73.70;;;;;;2261213;56;20914;-68
2023/12/15 12:06:29;;;;;;;4.87;1.95;;;12.40;73.80;;;;;;2290643;56;20949;-68
2023/12/15 12:08:56;;;;;;;3.42;1.52;;;12.40;73.80;;;;;;2290007;56;20945;-68
2023/12/15 12:11:22;;;;;;;4.20;1.90;;;12.40;73.80;;;;;;2290657;56;20934;-67
2023/12/15 12:13:53;;;;;;;4.12;1.95;;;12.50;73.90;;;;;;2290582;56;20930;-67
2023/12/15 12:16:20;;;;;;;3.60;1.80;;;12.40;73.80;;;;;;2290664;56;20946;-68
2023/12/15 12:18:47;;;;;;;4.40;2.30;;;12.40;73.70;;;;;;2290493;56;21069;-68
2023/12/15 12:21:15;;;;;;;4.90;1.90;;;12.40;73.60;;;;;;2290478;56;20922;-68
2023/12/15 12:23:42;;;;;;;4.10;1.90;;;12.40;73.30;;;;;;2281818;55;21079;-67
2023/12/15 12:26:08;;;;;;;5.10;2.37;;;12.40;73.20;;;;;;2502070;54;21846;-68
2023/12/15 12:28:39;;;;;;;3.40;1.80;;;12.40;73.20;;;;;;2525421;54;20949;-68
2023/12/15 12:31:06;;;;;;;4.72;2.20;;;12.40;73.10;;;;;;2289869;56;20938;-68
2023/12/15 12:33:32;;;;;;;4.62;1.75;;;12.40;73.20;;;;;;2525200;54;20929;-67
2023/12/15 12:35:59;;;;;;;3.70;1.92;;;12.40;73.00;;;;;;2290031;56;21392;-68
2023/12/15 12:38:26;;;;;;;8.32;2.30;;;12.40;72.90;;;;;;2289656;56;20918;-68
2023/12/15 12:40:52;;;;;;;4.25;1.83;;;12.40;72.80;;;;;;2525163;54;20998;-67
2023/12/15 12:43:19;;;;;;;3.83;1.98;;;12.40;72.70;;;;;;2290852;56;20997;-68
2023/12/15 12:45:46;;;;;;;4.50;2.30;;;12.40;72.80;;;;;;2290030;56;20953;-68
2023/12/15 12:48:14;;;;;;;4.00;1.92;;;12.40;72.60;;;;;;2523667;54;20934;-68
2023/12/15 12:50:40;;;;;;;4.57;2.15;;;12.50;72.80;;;;;;2280272;56;20969;-68
2023/12/15 12:53:07;;;;;;;4.55;2.50;;;12.40;72.80;;;;;;2524610;54;21864;-68
2023/12/15 12:55:37;;;;;;;4.20;2.20;;;12.40;72.80;;;;;;2288592;55;20937;-68
2023/12/15 12:58:03;;;;;;;4.43;2.10;;;12.40;72.70;;;;;;2517686;54;21517;-68
2023/12/15 13:00:32;;;;;;;4.03;1.92;;;12.30;72.50;;;;;;2263591;57;20977;-68